KED weather

Kaédi Airport
Kaédi, Gorgol Region, Mauritania

Public forecast

Using degrees Celsius for public forecast. Weather courtesy of forecast.io.

METAR (pilot weather report)

Closest report is Ouro Sogui Airport, 35.6 nm (66.0 km) SSE. Retrieved 2019/07/16 03:00 UTC (29 minutes ago):

GOSM 160300Z 34008KT CAVOK 31/19 Q1009

TAF (pilot weather forecast)

Forecast is more than 12 hours old.

Closest forecast is Saint Louis Airport, 170.6 nm (316.0 km) W. Retrieved 2019/07/15 00:00 UTC (1 day ago):

TAF GOGS 152330Z 1600/1624 24004KT 9999 SCT015= TAF GOSS 152330Z 1600/1624 28006KT 9999 SCT010